createdAt,value
2017-11-08T00:00:41.247Z,1016.2
2017-11-08T00:01:43.456Z,1016.3
2017-11-08T00:02:46.017Z,1016.3
2017-11-08T00:03:48.785Z,1016.3
2017-11-08T00:04:51.412Z,1016.3
2017-11-08T00:05:54.214Z,1016.2
2017-11-08T00:06:57.202Z,1016.3
2017-11-08T00:08:00.460Z,1016.3
2017-11-08T00:09:03.114Z,1016.2
2017-11-08T00:10:05.828Z,1016.2
2017-11-08T00:11:08.683Z,1016.2
2017-11-08T00:12:11.317Z,1016.2
2017-11-08T00:13:14.122Z,1016.2
2017-11-08T00:14:16.794Z,1016.2
2017-11-08T00:15:19.306Z,1016.2
2017-11-08T00:16:21.973Z,1016.1
2017-11-08T00:17:24.972Z,1016.1
2017-11-08T00:18:27.633Z,1016.1
2017-11-08T00:19:30.454Z,1016.1
2017-11-08T00:20:33.137Z,1016.1
2017-11-08T00:21:35.739Z,1016.1
2017-11-08T00:22:38.429Z,1016.1
2017-11-08T00:23:41.062Z,1016.1
2017-11-08T00:24:43.884Z,1016.1
2017-11-08T00:25:46.512Z,1016.1
2017-11-08T00:26:49.167Z,1016.1
2017-11-08T00:27:51.798Z,1016.1
2017-11-08T00:28:54.400Z,1016.0
2017-11-08T00:29:57.027Z,1016.0
2017-11-08T00:31:00.850Z,1016.0
2017-11-08T00:32:03.438Z,1016.0
2017-11-08T00:33:05.884Z,1016.1
2017-11-08T00:34:08.383Z,1016.1
2017-11-08T00:35:10.761Z,1016.1
2017-11-08T00:36:13.364Z,1016.0
2017-11-08T00:37:15.958Z,1016.0
2017-11-08T00:38:18.612Z,1016.0
2017-11-08T00:39:21.189Z,1016.1
2017-11-08T00:40:23.749Z,1016.1
2017-11-08T00:41:26.428Z,1016.1
2017-11-08T00:42:29.237Z,1016.0
2017-11-08T00:43:31.859Z,1016.0
2017-11-08T00:44:34.554Z,1016.0
2017-11-08T00:45:37.431Z,1016.0
2017-11-08T00:46:40.154Z,1016.0
2017-11-08T00:47:42.776Z,1016.0
2017-11-08T00:48:45.850Z,1016.0
2017-11-08T00:49:48.659Z,1016.0
2017-11-08T00:50:51.551Z,1016.0
2017-11-08T00:51:54.180Z,1016.0
2017-11-08T00:52:56.903Z,1016.0
2017-11-08T00:53:59.541Z,1016.1
2017-11-08T00:55:02.296Z,1016.0
2017-11-08T00:56:05.157Z,1016.1
2017-11-08T00:57:07.864Z,1016.0
2017-11-08T00:58:10.557Z,1016.0
2017-11-08T00:59:13.129Z,1016.0
2017-11-08T01:00:15.808Z,1016.1
2017-11-08T01:01:18.185Z,1016.0
2017-11-08T01:02:20.516Z,1016.1
2017-11-08T01:03:23.001Z,1016.0
2017-11-08T01:04:25.721Z,1016.0
2017-11-08T01:05:28.263Z,1016.1
2017-11-08T01:06:30.907Z,1016.0
2017-11-08T01:07:33.477Z,1016.1
2017-11-08T01:08:36.107Z,1016.0
2017-11-08T01:09:38.370Z,1016.1
2017-11-08T01:10:41.115Z,1016.1
2017-11-08T01:11:43.689Z,1016.1
2017-11-08T01:12:46.395Z,1016.1
2017-11-08T01:13:48.790Z,1016.0
2017-11-08T01:14:51.568Z,1016.0
2017-11-08T01:15:54.363Z,1016.0
2017-11-08T01:16:57.067Z,1016.1
2017-11-08T01:17:59.756Z,1016.0
2017-11-08T01:19:02.660Z,1016.0
2017-11-08T01:20:05.306Z,1016.0
2017-11-08T01:21:08.008Z,1016.0
2017-11-08T01:22:10.598Z,1016.0
2017-11-08T01:23:13.250Z,1016.0
2017-11-08T01:24:15.781Z,1016.0
2017-11-08T01:25:18.146Z,1016.0
2017-11-08T01:26:20.673Z,1016.0
2017-11-08T01:27:23.479Z,1016.0
2017-11-08T01:28:26.257Z,1016.0
2017-11-08T01:29:28.881Z,1015.9
2017-11-08T01:30:31.891Z,1016.0
2017-11-08T01:31:34.944Z,1016.0
2017-11-08T01:32:37.302Z,1015.9
2017-11-08T01:33:39.639Z,1015.9
2017-11-08T01:34:42.202Z,1016.0
2017-11-08T01:35:44.661Z,1015.9
2017-11-08T01:36:47.125Z,1015.9
2017-11-08T01:37:49.665Z,1015.9
2017-11-08T01:38:52.455Z,1015.9
2017-11-08T01:39:55.015Z,1015.9
2017-11-08T01:40:57.625Z,1016.0
2017-11-08T01:42:00.091Z,1016.0
2017-11-08T01:43:02.567Z,1015.9
2017-11-08T01:44:05.158Z,1016.0
2017-11-08T01:45:07.901Z,1016.0
2017-11-08T01:46:10.439Z,1016.0
2017-11-08T01:47:13.036Z,1015.9
2017-11-08T01:48:15.611Z,1015.9
2017-11-08T01:49:18.297Z,1015.9
2017-11-08T01:50:21.000Z,1015.8
2017-11-08T01:51:23.957Z,1015.9
2017-11-08T01:52:26.667Z,1015.8
2017-11-08T01:53:29.321Z,1015.8
2017-11-08T01:54:31.911Z,1015.9
2017-11-08T01:55:34.694Z,1015.8
2017-11-08T01:56:37.368Z,1015.9
2017-11-08T01:57:40.173Z,1015.9
2017-11-08T01:58:44.270Z,1015.9
2017-11-08T01:59:46.961Z,1015.9
2017-11-08T02:00:49.610Z,1015.9
2017-11-08T02:01:52.188Z,1015.9
2017-11-08T02:02:54.943Z,1015.9
2017-11-08T02:03:57.583Z,1015.9
2017-11-08T02:05:00.313Z,1015.9
2017-11-08T02:06:02.854Z,1015.9
2017-11-08T02:07:05.518Z,1015.9
2017-11-08T02:08:08.199Z,1015.9
2017-11-08T02:09:10.856Z,1015.8
2017-11-08T02:10:13.265Z,1015.8
2017-11-08T02:11:15.669Z,1015.9
2017-11-08T02:12:18.082Z,1015.9
2017-11-08T02:13:20.287Z,1015.8
2017-11-08T02:14:22.630Z,1015.8
2017-11-08T02:15:24.979Z,1015.8
2017-11-08T02:16:27.451Z,1015.9
2017-11-08T02:17:29.831Z,1015.9
2017-11-08T02:18:32.269Z,1015.9
2017-11-08T02:19:34.691Z,1015.9
2017-11-08T02:20:37.004Z,1015.9
2017-11-08T02:21:39.386Z,1015.9
2017-11-08T02:22:41.765Z,1015.8
2017-11-08T02:23:44.153Z,1015.9
2017-11-08T02:24:46.507Z,1015.9
2017-11-08T02:25:48.872Z,1015.9
2017-11-08T02:26:51.235Z,1015.9
2017-11-08T02:27:53.756Z,1015.9
2017-11-08T02:28:56.122Z,1016.0
2017-11-08T02:29:58.572Z,1016.0
2017-11-08T02:31:01.358Z,1016.0
2017-11-08T02:32:03.875Z,1016.0
2017-11-08T02:33:06.540Z,1016.1
2017-11-08T02:34:09.324Z,1016.1
2017-11-08T02:35:11.830Z,1016.1
2017-11-08T02:36:14.199Z,1016.1
2017-11-08T02:37:16.596Z,1016.1
2017-11-08T02:38:18.833Z,1016.2
2017-11-08T02:39:21.609Z,1016.1
2017-11-08T02:40:23.936Z,1016.1
2017-11-08T02:41:26.329Z,1016.2
2017-11-08T02:42:28.775Z,1016.2
2017-11-08T02:43:31.132Z,1016.2
2017-11-08T02:44:33.587Z,1016.2
2017-11-08T02:45:35.928Z,1016.2
2017-11-08T02:46:38.218Z,1016.2
2017-11-08T02:47:40.622Z,1016.2
2017-11-08T02:48:43.050Z,1016.2
2017-11-08T02:49:45.391Z,1016.1
2017-11-08T02:50:47.752Z,1016.1
2017-11-08T02:51:50.574Z,1016.0
2017-11-08T02:52:53.223Z,1016.1
2017-11-08T02:53:55.810Z,1016.0
2017-11-08T02:54:58.285Z,1016.1
2017-11-08T02:56:00.792Z,1016.0
2017-11-08T02:57:03.357Z,1016.1
2017-11-08T02:58:05.954Z,1016.2
2017-11-08T02:59:08.570Z,1016.2
2017-11-08T03:00:11.129Z,1016.3
2017-11-08T03:01:13.701Z,1016.3
2017-11-08T03:02:16.407Z,1016.3
2017-11-08T03:03:19.145Z,1016.3
2017-11-08T03:04:21.918Z,1016.3
2017-11-08T03:05:24.576Z,1016.3
2017-11-08T03:06:27.346Z,1016.3
2017-11-08T03:07:30.281Z,1016.3
2017-11-08T03:08:32.473Z,1016.2
2017-11-08T03:09:35.322Z,1016.2
2017-11-08T03:10:37.949Z,1016.1
2017-11-08T03:11:40.339Z,1016.1
2017-11-08T03:12:43.157Z,1016.1
2017-11-08T03:13:45.869Z,1016.1
2017-11-08T03:14:48.489Z,1016.1
2017-11-08T03:15:51.250Z,1016.1
2017-11-08T03:16:53.919Z,1016.1
2017-11-08T03:17:56.735Z,1016.1
2017-11-08T03:18:59.624Z,1016.1
2017-11-08T03:20:02.882Z,1016.1
2017-11-08T03:21:04.436Z,1016.0
2017-11-08T03:22:06.007Z,1016.0
2017-11-08T03:23:07.564Z,1016.0
2017-11-08T03:24:09.130Z,1015.9
2017-11-08T03:25:10.687Z,1016.0
2017-11-08T03:26:12.240Z,1015.9
2017-11-08T03:27:16.942Z,1016.0
2017-11-08T03:28:19.737Z,1015.9
2017-11-08T03:29:22.361Z,1015.8
2017-11-08T03:30:25.233Z,1015.8
2017-11-08T03:31:27.933Z,1015.8
2017-11-08T03:32:30.722Z,1015.8
2017-11-08T03:33:33.262Z,1015.8
2017-11-08T03:34:36.076Z,1015.8
2017-11-08T03:35:39.249Z,1015.8
2017-11-08T03:36:40.795Z,1015.8
2017-11-08T03:37:42.352Z,1015.7
2017-11-08T03:38:43.912Z,1015.7
2017-11-08T03:39:45.471Z,1015.7
2017-11-08T03:40:49.238Z,1015.7
2017-11-08T03:41:52.354Z,1015.7
2017-11-08T03:42:55.033Z,1015.7
2017-11-08T03:43:57.585Z,1015.7
2017-11-08T03:44:59.947Z,1015.8
2017-11-08T03:46:02.313Z,1015.8
2017-11-08T03:47:04.637Z,1015.8
2017-11-08T03:48:06.890Z,1015.8
2017-11-08T03:49:10.779Z,1015.8
2017-11-08T03:50:12.350Z,1015.8
2017-11-08T03:51:13.923Z,1015.8
2017-11-08T03:52:15.462Z,1015.8
2017-11-08T03:53:16.968Z,1015.8
2017-11-08T03:54:19.850Z,1015.8
2017-11-08T03:55:22.052Z,1015.7
2017-11-08T03:56:24.409Z,1015.7
2017-11-08T03:57:26.627Z,1015.7
2017-11-08T03:58:28.847Z,1015.7
2017-11-08T03:59:31.276Z,1015.7
2017-11-08T04:00:33.699Z,1015.7
2017-11-08T04:01:35.991Z,1015.7
2017-11-08T04:02:38.386Z,1015.7
2017-11-08T04:03:40.714Z,1015.7
2017-11-08T04:04:44.072Z,1015.7
2017-11-08T04:05:45.575Z,1015.7
2017-11-08T04:06:47.171Z,1015.7
2017-11-08T04:07:50.257Z,1015.7
2017-11-08T04:08:51.810Z,1015.6
2017-11-08T04:09:53.297Z,1015.7
2017-11-08T04:10:54.880Z,1015.7
2017-11-08T04:11:56.435Z,1015.7
2017-11-08T04:12:57.988Z,1015.8
2017-11-08T04:13:59.545Z,1015.7
2017-11-08T04:15:01.095Z,1015.8
2017-11-08T04:16:02.620Z,1015.8
2017-11-08T04:17:04.147Z,1015.8
2017-11-08T04:18:05.718Z,1015.7
2017-11-08T04:19:07.294Z,1015.7
2017-11-08T04:20:09.886Z,1015.7
2017-11-08T04:21:11.442Z,1015.6
2017-11-08T04:22:12.984Z,1015.7
2017-11-08T04:23:14.549Z,1015.7
2017-11-08T04:24:16.078Z,1015.7
2017-11-08T04:25:17.607Z,1015.7
2017-11-08T04:26:19.188Z,1015.7
2017-11-08T04:27:20.694Z,1015.7
2017-11-08T04:28:22.246Z,1015.7
2017-11-08T04:29:23.791Z,1015.7
2017-11-08T04:30:25.354Z,1015.7
2017-11-08T04:31:28.368Z,1015.7
2017-11-08T04:32:31.028Z,1015.7
2017-11-08T04:33:33.602Z,1015.8
2017-11-08T04:34:36.611Z,1015.7
2017-11-08T04:35:38.150Z,1015.8
2017-11-08T04:36:39.682Z,1015.8
2017-11-08T04:37:41.215Z,1015.8
2017-11-08T04:38:42.757Z,1015.8
2017-11-08T04:39:44.364Z,1015.8
2017-11-08T04:40:45.914Z,1015.8
2017-11-08T04:41:47.479Z,1015.8
2017-11-08T04:42:49.063Z,1015.7
2017-11-08T04:43:50.634Z,1015.8
2017-11-08T04:44:52.187Z,1015.7
2017-11-08T04:45:53.715Z,1015.8
2017-11-08T04:46:55.245Z,1015.7
2017-11-08T04:47:56.803Z,1015.7
2017-11-08T04:48:58.344Z,1015.7
2017-11-08T04:49:59.918Z,1015.7
2017-11-08T04:51:01.421Z,1015.7
2017-11-08T04:52:02.933Z,1015.8
2017-11-08T04:53:04.487Z,1015.8
2017-11-08T04:54:06.029Z,1015.8
2017-11-08T04:55:07.598Z,1015.8
2017-11-08T04:56:09.141Z,1015.8
2017-11-08T04:57:10.700Z,1015.9
2017-11-08T04:58:12.229Z,1015.8
2017-11-08T04:59:13.766Z,1015.8
2017-11-08T05:00:16.402Z,1015.8
2017-11-08T05:01:17.935Z,1015.8
2017-11-08T05:02:20.863Z,1015.8
2017-11-08T05:03:23.710Z,1015.9
2017-11-08T05:04:26.078Z,1015.9
2017-11-08T05:05:28.448Z,1015.9
2017-11-08T05:06:30.836Z,1015.9
2017-11-08T05:07:33.191Z,1015.9
2017-11-08T05:08:35.554Z,1016.0
2017-11-08T05:09:37.763Z,1016.0
2017-11-08T05:10:40.150Z,1016.0
2017-11-08T05:11:42.570Z,1016.0
2017-11-08T05:12:44.876Z,1015.9
2017-11-08T05:13:47.240Z,1015.9
2017-11-08T05:14:49.523Z,1015.9
2017-11-08T05:15:51.940Z,1015.8
2017-11-08T05:16:55.645Z,1015.8
2017-11-08T05:17:57.080Z,1015.8
2017-11-08T05:18:58.624Z,1015.8
2017-11-08T05:20:00.165Z,1015.8
2017-11-08T05:21:01.667Z,1015.8
2017-11-08T05:22:03.174Z,1015.8
2017-11-08T05:23:04.701Z,1015.8
2017-11-08T05:24:06.226Z,1015.8
2017-11-08T05:25:07.753Z,1015.9
2017-11-08T05:26:09.267Z,1015.9
2017-11-08T05:27:10.816Z,1015.9
2017-11-08T05:28:12.332Z,1016.0
2017-11-08T05:29:13.845Z,1016.0
2017-11-08T05:30:15.431Z,1016.0
2017-11-08T05:31:18.073Z,1016.0
2017-11-08T05:32:19.619Z,1016.0
2017-11-08T05:33:22.575Z,1016.0
2017-11-08T05:34:24.158Z,1016.0
2017-11-08T05:35:25.815Z,1016.0
2017-11-08T05:36:27.400Z,1016.0
2017-11-08T05:37:28.989Z,1016.0
2017-11-08T05:38:32.748Z,1016.0
2017-11-08T05:39:34.948Z,1016.0
2017-11-08T05:40:37.777Z,1015.9
2017-11-08T05:41:39.978Z,1015.9
2017-11-08T05:42:42.454Z,1015.9
2017-11-08T05:43:44.702Z,1015.9
2017-11-08T05:44:46.706Z,1015.8
2017-11-08T05:45:48.945Z,1015.8
2017-11-08T05:46:51.161Z,1015.8
2017-11-08T05:47:56.413Z,1015.9
2017-11-08T05:48:58.174Z,1015.9
2017-11-08T05:50:01.558Z,1015.9
2017-11-08T05:51:03.312Z,1015.8
2017-11-08T05:52:06.294Z,1015.8
2017-11-08T05:53:07.926Z,1015.9
2017-11-08T05:54:09.778Z,1015.9
2017-11-08T05:55:12.399Z,1015.9
2017-11-08T05:56:13.966Z,1015.9
2017-11-08T05:57:15.514Z,1015.9
2017-11-08T05:58:17.165Z,1015.9
2017-11-08T05:59:18.746Z,1015.8
2017-11-08T06:00:20.310Z,1015.8
2017-11-08T06:01:21.876Z,1015.9
2017-11-08T06:02:23.656Z,1015.9
2017-11-08T06:03:25.294Z,1015.8
2017-11-08T06:04:26.940Z,1015.8
2017-11-08T06:05:28.508Z,1015.8
2017-11-08T06:06:30.030Z,1015.9
2017-11-08T06:07:31.627Z,1015.9
2017-11-08T06:08:33.188Z,1015.8
2017-11-08T06:09:34.766Z,1015.8
2017-11-08T06:10:36.305Z,1015.8
2017-11-08T06:11:37.838Z,1015.8
2017-11-08T06:12:39.376Z,1015.9
2017-11-08T06:13:40.946Z,1015.9
2017-11-08T06:14:42.487Z,1015.9
2017-11-08T06:15:44.103Z,1015.9
2017-11-08T06:16:45.679Z,1015.9
2017-11-08T06:17:47.268Z,1016.0
2017-11-08T06:18:48.882Z,1016.0
2017-11-08T06:19:50.438Z,1015.9
2017-11-08T06:20:51.981Z,1016.0
2017-11-08T06:21:53.528Z,1016.0
2017-11-08T06:22:55.166Z,1016.0
2017-11-08T06:23:56.679Z,1016.1
2017-11-08T06:24:58.328Z,1016.2
2017-11-08T06:25:59.899Z,1016.2
2017-11-08T06:27:01.518Z,1016.1
2017-11-08T06:28:03.104Z,1016.1
2017-11-08T06:29:04.684Z,1016.1
2017-11-08T06:30:06.236Z,1016.1
2017-11-08T06:31:07.777Z,1016.2
2017-11-08T06:32:09.372Z,1016.2
2017-11-08T06:33:10.973Z,1016.2
2017-11-08T06:34:12.550Z,1016.2
2017-11-08T06:35:14.112Z,1016.2
2017-11-08T06:36:15.706Z,1016.1
2017-11-08T06:37:17.266Z,1016.2
2017-11-08T06:38:18.807Z,1016.2
2017-11-08T06:39:20.405Z,1016.1
2017-11-08T06:40:21.931Z,1016.0
2017-11-08T06:41:23.513Z,1016.0
2017-11-08T06:42:25.090Z,1015.9
2017-11-08T06:43:26.656Z,1016.0
2017-11-08T06:44:28.252Z,1016.1
2017-11-08T06:45:29.793Z,1016.2
2017-11-08T06:46:31.367Z,1016.2
2017-11-08T06:47:32.934Z,1016.2
2017-11-08T06:48:34.519Z,1016.2
2017-11-08T06:49:36.153Z,1016.2
2017-11-08T06:50:37.718Z,1016.1
2017-11-08T06:51:39.310Z,1016.2
2017-11-08T06:52:40.930Z,1016.2
2017-11-08T06:53:42.472Z,1016.2
2017-11-08T06:54:44.102Z,1016.2
2017-11-08T06:55:45.665Z,1016.2
2017-11-08T06:56:48.369Z,1016.2
2017-11-08T06:57:50.478Z,1016.2
2017-11-08T06:58:52.038Z,1016.2
2017-11-08T06:59:53.615Z,1016.3
2017-11-08T07:00:55.533Z,1016.3
2017-11-08T07:01:57.344Z,1016.4
2017-11-08T07:02:59.156Z,1016.4
2017-11-08T07:04:02.341Z,1016.4
2017-11-08T07:05:04.211Z,1016.4
2017-11-08T07:06:06.092Z,1016.4
2017-11-08T07:07:08.088Z,1016.3
2017-11-08T07:08:09.940Z,1016.3
2017-11-08T07:09:12.206Z,1016.2
2017-11-08T07:10:16.483Z,1016.2
2017-11-08T07:11:18.247Z,1016.2
2017-11-08T07:12:21.706Z,1016.2
2017-11-08T07:13:24.981Z,1016.3
2017-11-08T07:14:26.891Z,1016.3
2017-11-08T07:15:28.770Z,1016.3
2017-11-08T07:16:30.721Z,1016.3
2017-11-08T07:17:32.649Z,1016.4
2017-11-08T07:18:34.607Z,1016.4
2017-11-08T07:19:36.515Z,1016.4
2017-11-08T07:20:38.475Z,1016.5
2017-11-08T07:21:40.473Z,1016.5
2017-11-08T07:22:42.414Z,1016.5
2017-11-08T07:23:44.358Z,1016.5
2017-11-08T07:24:46.276Z,1016.5
2017-11-08T07:25:48.559Z,1016.5
2017-11-08T07:26:53.637Z,1016.5
2017-11-08T07:28:01.299Z,1016.5
2017-11-08T07:29:03.764Z,1016.5
2017-11-08T07:30:05.621Z,1016.5
2017-11-08T07:31:07.478Z,1016.5
2017-11-08T07:32:09.428Z,1016.5
2017-11-08T07:33:13.085Z,1016.5
2017-11-08T07:34:15.093Z,1016.5
2017-11-08T07:35:16.953Z,1016.6
2017-11-08T07:36:19.055Z,1016.6
2017-11-08T07:37:21.091Z,1016.7
2017-11-08T07:38:23.130Z,1016.7
2017-11-08T07:39:25.143Z,1016.8
2017-11-08T07:40:27.116Z,1016.8
2017-11-08T07:41:29.027Z,1016.8
2017-11-08T07:42:30.927Z,1016.8
2017-11-08T07:43:32.731Z,1016.8
2017-11-08T07:44:34.615Z,1016.8
2017-11-08T07:45:36.517Z,1016.8
2017-11-08T07:46:39.564Z,1016.8
2017-11-08T07:47:41.520Z,1016.8
2017-11-08T07:48:43.399Z,1016.8
2017-11-08T07:49:45.386Z,1016.8
2017-11-08T07:50:47.369Z,1016.8
2017-11-08T07:51:49.234Z,1016.8
2017-11-08T07:52:51.417Z,1016.9
2017-11-08T07:53:53.316Z,1016.8
2017-11-08T07:54:55.146Z,1016.9
2017-11-08T07:55:57.037Z,1016.9
2017-11-08T07:57:02.957Z,1016.9
2017-11-08T07:58:04.639Z,1016.9
2017-11-08T07:59:07.852Z,1016.9
2017-11-08T08:00:10.494Z,1016.9
2017-11-08T08:01:13.127Z,1016.9
2017-11-08T08:02:15.814Z,1017.0
2017-11-08T08:03:18.660Z,1017.0
2017-11-08T08:04:22.076Z,1017.0
2017-11-08T08:05:24.942Z,1017.0
2017-11-08T08:06:28.208Z,1017.0
2017-11-08T08:07:30.957Z,1017.0
2017-11-08T08:08:33.487Z,1017.0
2017-11-08T08:09:36.237Z,1017.0
2017-11-08T08:10:39.111Z,1017.0
2017-11-08T08:11:42.091Z,1017.0
2017-11-08T08:12:48.127Z,1017.1
2017-11-08T08:13:50.753Z,1017.0
2017-11-08T08:14:53.677Z,1017.0
2017-11-08T08:15:56.860Z,1017.1
2017-11-08T08:17:00.097Z,1017.0
2017-11-08T08:18:02.938Z,1017.0
2017-11-08T08:19:06.322Z,1017.1
2017-11-08T08:20:09.272Z,1017.1
2017-11-08T08:21:16.563Z,1017.1
2017-11-08T08:22:20.904Z,1017.1
2017-11-08T08:23:30.934Z,1017.1
2017-11-08T08:24:38.571Z,1017.1
2017-11-08T08:25:49.897Z,1017.1
2017-11-08T08:26:58.244Z,1017.1
2017-11-08T08:28:05.869Z,1017.1
2017-11-08T08:29:09.863Z,1017.1
2017-11-08T08:30:13.906Z,1017.1
2017-11-08T08:31:17.654Z,1017.2
2017-11-08T08:32:21.531Z,1017.2
2017-11-08T08:33:26.086Z,1017.2
2017-11-08T08:34:30.143Z,1017.2
2017-11-08T08:35:35.080Z,1017.2
2017-11-08T08:36:39.173Z,1017.2
2017-11-08T08:37:47.763Z,1017.2
2017-11-08T08:38:51.950Z,1017.2
2017-11-08T08:39:55.517Z,1017.3
2017-11-08T08:40:59.193Z,1017.3
2017-11-08T08:42:03.041Z,1017.3
2017-11-08T08:43:06.929Z,1017.4
2017-11-08T08:44:13.151Z,1017.4
2017-11-08T08:45:16.604Z,1017.4
2017-11-08T08:46:20.035Z,1017.4
2017-11-08T08:47:24.174Z,1017.4
2017-11-08T08:48:28.304Z,1017.4
2017-11-08T08:49:31.887Z,1017.5
2017-11-08T08:50:35.660Z,1017.5
2017-11-08T08:51:39.066Z,1017.4
2017-11-08T08:52:44.464Z,1017.5
2017-11-08T08:53:46.259Z,1017.5
2017-11-08T08:54:48.123Z,1017.5
2017-11-08T08:55:49.936Z,1017.5
2017-11-08T08:56:51.618Z,1017.6
2017-11-08T08:57:53.488Z,1017.6
2017-11-08T08:58:58.572Z,1017.6
2017-11-08T09:00:04.352Z,1017.5
2017-11-08T09:01:08.065Z,1017.5
2017-11-08T09:02:11.719Z,1017.5
2017-11-08T09:03:16.785Z,1017.5
2017-11-08T09:04:18.570Z,1017.4
2017-11-08T09:05:20.360Z,1017.4
2017-11-08T09:06:22.175Z,1017.4
2017-11-08T09:07:24.012Z,1017.4
2017-11-08T09:08:25.844Z,1017.4
2017-11-08T09:09:27.668Z,1017.4
2017-11-08T09:10:29.479Z,1017.4
2017-11-08T09:11:31.334Z,1017.4
2017-11-08T09:12:33.136Z,1017.3
2017-11-08T09:13:35.022Z,1017.3
2017-11-08T09:14:36.850Z,1017.3
2017-11-08T09:15:38.682Z,1017.3
2017-11-08T09:16:40.535Z,1017.3
2017-11-08T09:17:42.359Z,1017.3
2017-11-08T09:18:44.196Z,1017.3
2017-11-08T09:19:45.991Z,1017.4
2017-11-08T09:20:47.804Z,1017.4
2017-11-08T09:21:49.574Z,1017.4
2017-11-08T09:22:51.418Z,1017.4
2017-11-08T09:23:53.173Z,1017.5
2017-11-08T09:24:54.935Z,1017.5
2017-11-08T09:25:56.739Z,1017.6
2017-11-08T09:26:58.579Z,1017.5
2017-11-08T09:28:00.348Z,1017.6
2017-11-08T09:29:02.149Z,1017.5
2017-11-08T09:30:03.931Z,1017.6
2017-11-08T09:31:05.757Z,1017.7
2017-11-08T09:32:07.572Z,1017.7
2017-11-08T09:33:09.410Z,1017.7
2017-11-08T09:34:11.224Z,1017.7
2017-11-08T09:35:13.048Z,1017.7
2017-11-08T09:36:14.885Z,1017.7
2017-11-08T09:37:16.699Z,1017.7
2017-11-08T09:38:18.459Z,1017.7
2017-11-08T09:39:20.262Z,1017.7
2017-11-08T09:40:22.057Z,1017.7
2017-11-08T09:41:23.856Z,1017.7
2017-11-08T09:42:25.634Z,1017.7
2017-11-08T09:43:27.421Z,1017.7
2017-11-08T09:44:29.242Z,1017.6
2017-11-08T09:45:31.025Z,1017.6
2017-11-08T09:46:32.823Z,1017.6
2017-11-08T09:47:34.639Z,1017.6
2017-11-08T09:48:36.431Z,1017.6
2017-11-08T09:49:38.224Z,1017.6
2017-11-08T09:50:40.016Z,1017.6
2017-11-08T09:52:09.385Z,1017.6
2017-11-08T09:53:44.890Z,1017.6
2017-11-08T09:54:47.306Z,1017.6
2017-11-08T09:55:50.103Z,1017.6
2017-11-08T09:57:04.250Z,1017.7
2017-11-08T09:58:17.338Z,1017.7
2017-11-08T09:59:22.795Z,1017.6
2017-11-08T10:00:26.205Z,1017.7
2017-11-08T10:01:39.421Z,1017.7
2017-11-08T10:02:42.188Z,1017.7
2017-11-08T10:03:46.900Z,1017.7
2017-11-08T10:04:54.043Z,1017.6
2017-11-08T10:05:55.786Z,1017.6
2017-11-08T10:06:57.661Z,1017.6
2017-11-08T10:07:59.448Z,1017.6
2017-11-08T10:09:01.256Z,1017.6
2017-11-08T10:10:03.023Z,1017.5
2017-11-08T10:11:04.706Z,1017.6
2017-11-08T10:12:06.510Z,1017.5
2017-11-08T10:13:08.298Z,1017.5
2017-11-08T10:14:10.084Z,1017.5
2017-11-08T10:15:11.869Z,1017.6
2017-11-08T10:16:13.650Z,1017.6
2017-11-08T10:17:15.409Z,1017.6
2017-11-08T10:18:17.232Z,1017.6
2017-11-08T10:19:18.981Z,1017.6
2017-11-08T10:20:20.728Z,1017.7
2017-11-08T10:21:23.977Z,1017.7
2017-11-08T10:22:25.735Z,1017.6
2017-11-08T10:23:27.515Z,1017.7
2017-11-08T10:24:29.311Z,1017.7
2017-11-08T10:25:31.074Z,1017.6
2017-11-08T10:26:32.896Z,1017.7
2017-11-08T10:27:34.689Z,1017.7
2017-11-08T10:28:36.505Z,1017.8
2017-11-08T10:29:38.333Z,1017.7
2017-11-08T10:30:40.123Z,1017.7
2017-11-08T10:31:41.921Z,1017.7
2017-11-08T10:32:43.742Z,1017.7
2017-11-08T10:33:45.533Z,1017.8
2017-11-08T10:34:47.365Z,1017.8
2017-11-08T10:35:49.209Z,1017.8
2017-11-08T10:36:50.986Z,1017.8
2017-11-08T10:37:52.765Z,1017.8
2017-11-08T10:38:54.637Z,1017.8
2017-11-08T10:39:56.453Z,1017.8
2017-11-08T10:40:58.201Z,1017.7
2017-11-08T10:43:01.909Z,1017.7
2017-11-08T10:44:03.737Z,1017.8
2017-11-08T10:45:05.498Z,1017.7
2017-11-08T10:46:07.209Z,1017.7
2017-11-08T10:47:09.009Z,1017.7
2017-11-08T10:48:10.804Z,1017.7
2017-11-08T10:49:12.630Z,1017.7
2017-11-08T10:50:14.473Z,1017.7
2017-11-08T10:51:16.226Z,1017.7
2017-11-08T10:52:17.971Z,1017.7
2017-11-08T10:53:19.811Z,1017.7
2017-11-08T10:54:21.718Z,1017.8
2017-11-08T10:55:23.568Z,1017.8
2017-11-08T10:56:25.427Z,1017.8
2017-11-08T10:57:27.263Z,1017.8
2017-11-08T10:58:29.142Z,1017.8
2017-11-08T10:59:31.023Z,1017.8
2017-11-08T11:00:35.223Z,1017.8
2017-11-08T11:01:37.896Z,1017.8
2017-11-08T11:02:40.437Z,1017.8
2017-11-08T11:03:43.038Z,1017.8
2017-11-08T11:05:08.570Z,1017.8
2017-11-08T11:06:11.621Z,1017.8
2017-11-08T11:07:43.688Z,1017.8
2017-11-08T11:08:47.128Z,1017.7
2017-11-08T11:09:55.815Z,1017.7
2017-11-08T11:10:58.434Z,1017.7
2017-11-08T11:12:17.893Z,1017.7
2017-11-08T11:13:22.916Z,1017.6
2017-11-08T11:14:24.754Z,1017.7
2017-11-08T11:15:26.361Z,1017.7
2017-11-08T11:16:28.214Z,1017.7
2017-11-08T11:17:30.067Z,1017.7
2017-11-08T11:18:31.913Z,1017.7
2017-11-08T11:19:33.839Z,1017.7
2017-11-08T11:20:35.709Z,1017.7
2017-11-08T11:21:37.513Z,1017.7
2017-11-08T11:22:39.110Z,1017.7
2017-11-08T11:24:00.090Z,1017.7
2017-11-08T11:25:02.567Z,1017.8
2017-11-08T11:26:07.441Z,1017.8
2017-11-08T11:27:13.939Z,1017.8
2017-11-08T11:28:19.155Z,1017.8
2017-11-08T11:29:22.455Z,1017.8
2017-11-08T11:30:24.553Z,1017.8
2017-11-08T11:31:26.934Z,1017.8
2017-11-08T11:32:29.191Z,1017.8
2017-11-08T11:33:31.538Z,1017.8
2017-11-08T11:34:33.801Z,1017.8
2017-11-08T11:35:35.905Z,1017.8
2017-11-08T11:36:38.162Z,1017.8
2017-11-08T11:37:40.444Z,1017.8
2017-11-08T11:38:42.541Z,1017.8
2017-11-08T11:39:44.731Z,1017.9
2017-11-08T11:40:46.976Z,1017.9
2017-11-08T11:41:49.142Z,1017.9
2017-11-08T11:42:51.013Z,1017.9
2017-11-08T11:43:52.944Z,1017.9
2017-11-08T11:44:54.889Z,1017.9
2017-11-08T11:45:56.844Z,1017.9
2017-11-08T11:46:59.185Z,1017.9
2017-11-08T11:48:01.362Z,1017.9
2017-11-08T11:49:14.381Z,1017.8
2017-11-08T11:50:17.651Z,1017.9
2017-11-08T11:51:21.632Z,1017.8
2017-11-08T11:52:24.151Z,1017.9
2017-11-08T11:53:27.009Z,1017.9
2017-11-08T11:54:43.515Z,1017.9
2017-11-08T11:55:45.450Z,1017.8
2017-11-08T11:56:47.669Z,1017.8
2017-11-08T11:57:49.878Z,1017.8
2017-11-08T11:58:53.758Z,1017.8
2017-11-08T11:59:57.427Z,1017.8
2017-11-08T12:01:01.334Z,1017.8
2017-11-08T12:02:04.842Z,1017.8
2017-11-08T12:03:12.135Z,1017.9
2017-11-08T12:04:32.846Z,1017.8
2017-11-08T12:05:44.009Z,1017.9
2017-11-08T12:06:47.358Z,1017.9
2017-11-08T12:07:49.176Z,1017.9
2017-11-08T12:08:51.101Z,1017.8
2017-11-08T12:09:53.253Z,1017.9
2017-11-08T12:10:55.328Z,1017.8
2017-11-08T12:11:57.720Z,1017.8
2017-11-08T12:12:59.875Z,1017.9
2017-11-08T12:14:02.030Z,1017.9
2017-11-08T12:15:04.152Z,1017.9
2017-11-08T12:16:06.288Z,1017.9
2017-11-08T12:17:08.355Z,1017.8
2017-11-08T12:18:10.460Z,1017.8
2017-11-08T12:19:12.542Z,1017.8
2017-11-08T12:20:14.711Z,1017.8
2017-11-08T12:21:16.648Z,1017.9
2017-11-08T12:22:18.707Z,1017.8
2017-11-08T12:23:20.773Z,1017.8
2017-11-08T12:24:22.772Z,1017.7
2017-11-08T12:25:24.819Z,1017.7
2017-11-08T12:26:26.997Z,1017.7
2017-11-08T12:27:29.058Z,1017.7
2017-11-08T12:28:31.129Z,1017.7
2017-11-08T12:29:33.077Z,1017.7
2017-11-08T12:30:35.133Z,1017.7
2017-11-08T12:31:37.209Z,1017.7
2017-11-08T12:32:39.252Z,1017.7
2017-11-08T12:33:41.429Z,1017.7
2017-11-08T12:34:44.851Z,1017.7
2017-11-08T12:35:47.255Z,1017.8
2017-11-08T12:36:49.581Z,1017.7
2017-11-08T12:37:51.950Z,1017.8
2017-11-08T12:38:55.364Z,1017.8
2017-11-08T12:39:57.872Z,1017.8
2017-11-08T12:41:01.318Z,1017.8
2017-11-08T12:42:04.541Z,1017.7
2017-11-08T12:43:06.852Z,1017.8
2017-11-08T12:44:09.282Z,1017.8
2017-11-08T12:45:11.525Z,1017.8
2017-11-08T12:46:13.878Z,1017.8
2017-11-08T12:47:16.330Z,1017.8
2017-11-08T12:48:18.659Z,1017.8
2017-11-08T12:49:21.596Z,1017.8
2017-11-08T12:50:24.617Z,1017.8
2017-11-08T12:51:27.337Z,1017.8
2017-11-08T12:52:29.823Z,1017.8
2017-11-08T12:53:32.977Z,1017.8
2017-11-08T12:54:35.955Z,1017.8
2017-11-08T12:55:38.352Z,1017.8
2017-11-08T12:56:40.588Z,1017.8
2017-11-08T12:57:42.931Z,1017.8
2017-11-08T12:58:45.189Z,1017.7
2017-11-08T12:59:47.423Z,1017.7
2017-11-08T13:00:50.018Z,1017.7
2017-11-08T13:01:53.030Z,1017.7
2017-11-08T13:02:55.268Z,1017.7
2017-11-08T13:03:58.901Z,1017.8